Time;durP1;ratioP1;P1;durP2;ratioP2;P2;SDS_P1;SDS_P2;PMS_P1;PMS_P2;Temp;Humidity;BMP_temperature;BMP_pressure;BME280_temperature;BME280_humidity;BME280_pressure;Samples;Min_cycle;Max_cycle;Signal;HPM_P1;HPM_P2
2023/08/02 00:00:37;;;;;;;;;;;;;;;26.58;61.38;100675.34;5083110;28;19915;-88
2023/08/02 00:03:03;;;;;;;;;;;;;;;26.60;61.19;100679.78;5098358;28;19974;-87
2023/08/02 00:05:28;;;;;;;;;;;;;;;26.59;61.27;100683.38;5094278;28;19908;-89
2023/08/02 00:07:54;;;;;;;;;;;;;;;26.59;61.20;100685.16;5103789;28;20006;-89
2023/08/02 00:10:19;;;;;;;;;;;;;;;26.61;61.20;100688.72;5099642;28;20572;-87
2023/08/02 00:12:45;;;;;;;;;;;;;;;26.58;61.33;100692.28;5098219;28;19915;-88
2023/08/02 00:15:10;;;;;;;;;;;;;;;26.59;61.36;100687.84;5083237;28;19951;-88
2023/08/02 00:17:36;;;;;;;;;;;;;;;26.58;61.28;100696.78;5104474;28;19927;-88
2023/08/02 00:20:01;;;;;;;;;;;;;;;26.57;61.32;100695.03;5107303;28;19931;-88
2023/08/02 00:22:27;;;;;;;;;;;;;;;26.56;61.17;100693.19;5095970;28;20411;-88
2023/08/02 00:24:52;;;;;;;;;;;;;;;26.56;61.02;100696.81;5093303;28;20301;-87
2023/08/02 00:27:17;;;;;;;;;;;;;;;26.58;60.86;100686.06;5085297;28;20026;-87
2023/08/02 00:29:43;;;;;;;;;;;;;;;26.57;61.29;100695.03;5103628;28;19912;-87
2023/08/02 00:32:08;;;;;;;;;;;;;;;26.57;61.24;100695.03;5076089;28;19920;-87
2023/08/02 00:34:34;;;;;;;;;;;;;;;26.56;61.29;100702.19;5093494;28;20546;-88
2023/08/02 00:37:01;;;;;;;;;;;;;;;26.55;61.09;100689.63;5097037;28;20322;-88
2023/08/02 00:39:26;;;;;;;;;;;;;;;26.55;61.07;100692.31;5092350;28;20015;-88
2023/08/02 00:41:52;;;;;;;;;;;;;;;26.57;60.81;100689.66;5091071;28;20002;-86
2023/08/02 00:44:17;;;;;;;;;;;;;;;26.55;61.07;100686.09;5095973;28;19981;-89
2023/08/02 00:46:42;;;;;;;;;;;;;;;26.55;60.72;100695.00;5108528;28;20507;-87
2023/08/02 00:49:08;;;;;;;;;;;;;;;26.54;61.10;100693.25;5096390;28;19919;-88
2023/08/02 00:51:34;;;;;;;;;;;;;;;26.53;61.13;100690.56;5089120;28;19934;-89
2023/08/02 00:54:02;;;;;;;;;;;;;;;26.53;61.14;100690.56;5094865;27;20361;-88
2023/08/02 00:56:28;;;;;;;;;;;;;;;26.52;60.95;100683.44;5110720;28;19911;-86
2023/08/02 00:58:53;;;;;;;;;;;;;;;26.52;61.19;100680.75;5104966;28;19916;-87
2023/08/02 01:01:19;;;;;;;;;;;;;;;26.51;61.22;100679.00;5097607;28;19934;-88
2023/08/02 01:03:44;;;;;;;;;;;;;;;26.50;60.94;100678.13;5082465;28;20157;-89
2023/08/02 01:06:15;;;;;;;;;;;;;;;26.48;61.30;100674.56;5094147;28;20010;-89
2023/08/02 01:08:41;;;;;;;;;;;;;;;26.49;61.06;100676.31;5082079;27;19912;-88
2023/08/02 01:11:24;;;;;;;;;;;;;;;26.49;61.28;100668.28;5121535;27;20304;-89
2023/08/02 01:13:50;;;;;;;;;;;;;;;26.49;61.05;100668.28;5089266;28;19912;-88
2023/08/02 01:16:16;;;;;;;;;;;;;;;26.46;61.27;100663.00;5078671;28;19916;-88
2023/08/02 01:18:41;;;;;;;;;;;;;;;26.46;61.24;100662.09;5117447;27;19916;-89
2023/08/02 01:21:07;;;;;;;;;;;;;;;26.46;61.08;100664.75;5109462;28;19918;-88
2023/08/02 01:23:37;;;;;;;;;;;;;;;26.47;60.85;100661.19;5106839;28;20293;-88
2023/08/02 01:26:03;;;;;;;;;;;;;;;26.46;61.20;100660.31;5100482;28;20002;-89
2023/08/02 01:28:28;;;;;;;;;;;;;;;26.45;61.16;100661.22;5080052;28;20442;-89
2023/08/02 01:30:53;;;;;;;;;;;;;;;26.44;61.00;100674.59;5076264;28;19998;-88
2023/08/02 01:33:20;;;;;;;;;;;;;;;26.46;61.10;100679.06;5106184;28;20469;-87
2023/08/02 01:35:45;;;;;;;;;;;;;;;26.46;61.04;100679.06;5102955;28;19916;-88
2023/08/02 01:38:11;;;;;;;;;;;;;;;26.43;61.18;100676.41;5096061;28;19922;-89
2023/08/02 01:40:36;;;;;;;;;;;;;;;26.44;60.77;100672.84;5105563;28;19916;-89
2023/08/02 01:43:02;;;;;;;;;;;;;;;26.43;61.07;100671.06;5092375;28;19919;-88
2023/08/02 01:45:27;;;;;;;;;;;;;;;26.42;60.96;100663.94;5105102;28;19911;-89
2023/08/02 01:47:55;;;;;;;;;;;;;;;26.40;60.77;100663.94;5121848;27;19969;-88
2023/08/02 01:50:22;;;;;;;;;;;;;;;26.40;60.99;100680.00;5104483;28;20381;-89
2023/08/02 01:52:49;;;;;;;;;;;;;;;26.42;60.80;100663.94;5123350;27;19960;-90
2023/08/02 01:55:17;;;;;;;;;;;;;;;26.41;60.63;100668.38;5086142;28;19916;-89
2023/08/02 01:57:43;;;;;;;;;;;;;;;26.41;60.69;100668.38;5096081;27;19915;-87
2023/08/02 02:00:09;;;;;;;;;;;;;;;26.39;60.96;100666.63;5117730;27;19911;-88
2023/08/02 02:02:34;;;;;;;;;;;;;;;26.37;60.68;100664.00;5104821;28;19918;-89
2023/08/02 02:05:03;;;;;;;;;;;;;;;26.39;60.85;100661.28;5106276;27;19911;-87
2023/08/02 02:07:28;;;;;;;;;;;;;;;26.39;60.90;100662.19;5124874;27;19912;-88
2023/08/02 02:09:53;;;;;;;;;;;;;;;26.39;60.68;100658.59;5093636;27;19911;-88
2023/08/02 02:12:19;;;;;;;;;;;;;;;26.40;60.71;100657.72;5117414;27;19976;-88
2023/08/02 02:14:44;;;;;;;;;;;;;;;26.38;60.95;100662.19;5125360;27;19938;-89
2023/08/02 02:17:10;;;;;;;;;;;;;;;26.37;60.99;100653.28;5121300;27;19916;-87
2023/08/02 02:19:35;;;;;;;;;;;;;;;26.36;60.94;100656.84;5120740;27;19938;-88
2023/08/02 02:22:00;;;;;;;;;;;;;;;26.37;60.94;100660.41;5091007;27;19912;-88
2023/08/02 02:24:26;;;;;;;;;;;;;;;26.35;60.67;100657.78;5102297;28;19912;-88
2023/08/02 02:26:51;;;;;;;;;;;;;;;26.33;60.72;100650.66;5098892;28;19912;-91
2023/08/02 02:29:18;;;;;;;;;;;;;;;26.34;60.59;100657.78;5102784;27;19916;-90
2023/08/02 02:31:47;;;;;;;;;;;;;;;26.33;60.64;100664.03;5099228;27;19915;-90
2023/08/02 02:34:13;;;;;;;;;;;;;;;26.33;61.00;100656.00;5111658;28;20418;-88
2023/08/02 02:36:38;;;;;;;;;;;;;;;26.33;60.65;100658.69;5104297;27;20031;-89
2023/08/02 02:39:05;;;;;;;;;;;;;;;26.32;60.87;100668.50;5108933;27;19912;-89
2023/08/02 02:41:30;;;;;;;;;;;;;;;26.32;60.65;100665.84;5120485;27;20057;-88
2023/08/02 02:43:56;;;;;;;;;;;;;;;26.32;60.61;100678.34;5097752;28;20002;-91
2023/08/02 02:46:21;;;;;;;;;;;;;;;26.34;60.40;100673.84;5094677;28;20040;-89
2023/08/02 02:48:46;;;;;;;;;;;;;;;26.35;60.42;100673.84;5095568;28;20015;-88
2023/08/02 02:51:12;;;;;;;;;;;;;;;26.32;60.61;100673.88;5087020;28;19969;-89
2023/08/02 02:53:38;;;;;;;;;;;;;;;26.30;60.76;100673.00;5099940;28;19912;-88
2023/08/02 02:56:06;;;;;;;;;;;;;;;26.30;60.61;100670.31;5094224;28;19915;-89
2023/08/02 02:58:31;;;;;;;;;;;;;;;26.31;60.50;100673.88;5088614;28;19919;-89
2023/08/02 03:00:57;;;;;;;;;;;;;;;26.32;60.39;100676.53;5100164;28;20014;-89
2023/08/02 03:03:23;;;;;;;;;;;;;;;26.18;60.72;100658.00;5104785;28;19908;-88
2023/08/02 03:05:49;;;;;;;;;;;;;;;26.29;60.38;100675.69;5091974;28;19919;-88
2023/08/02 03:08:14;;;;;;;;;;;;;;;26.26;60.54;100678.41;5107158;28;19961;-89
2023/08/02 03:10:39;;;;;;;;;;;;;;;26.26;60.61;100681.09;5104782;27;20745;-89
2023/08/02 03:13:05;;;;;;;;;;;;;;;26.26;60.75;100681.97;5100056;28;19923;-88
2023/08/02 03:15:30;;;;;;;;;;;;;;;26.27;60.57;100682.84;5086506;28;20321;-89
2023/08/02 03:17:56;;;;;;;;;;;;;;;26.25;60.60;100690.03;5106816;28;19915;-88
2023/08/02 03:20:22;;;;;;;;;;;;;;;26.26;60.34;100695.34;5102341;28;20331;-88
2023/08/02 03:22:47;;;;;;;;;;;;;;;26.26;60.53;100690.00;5100783;27;19998;-86
2023/08/02 03:25:13;;;;;;;;;;;;;;;26.26;60.40;100697.16;5101587;28;19927;-88
2023/08/02 03:27:39;;;;;;;;;;;;;;;26.24;60.33;100702.50;5101174;28;20401;-89
2023/08/02 03:30:05;;;;;;;;;;;;;;;26.24;60.76;100698.97;5100393;28;20440;-85
2023/08/02 03:32:30;;;;;;;;;;;;;;;26.22;60.65;100700.75;5092895;28;20041;-84
2023/08/02 03:34:56;;;;;;;;;;;;;;;26.23;60.41;100691.84;5095865;28;19927;-85
2023/08/02 03:37:21;;;;;;;;;;;;;;;26.22;60.47;100687.38;5095517;28;19930;-86
2023/08/02 03:39:47;;;;;;;;;;;;;;;26.22;60.77;100687.38;5105765;27;19927;-86
2023/08/02 03:42:12;;;;;;;;;;;;;;;26.24;60.33;100688.25;5085338;28;19937;-85
2023/08/02 03:44:38;;;;;;;;;;;;;;;26.23;60.64;100679.34;5112802;27;19916;-86
2023/08/02 03:47:03;;;;;;;;;;;;;;;26.23;60.40;100691.84;5100855;27;19918;-86
2023/08/02 03:49:29;;;;;;;;;;;;;;;26.20;60.59;100682.03;5113300;27;20345;-85
2023/08/02 03:51:54;;;;;;;;;;;;;;;26.22;60.20;100680.22;5112226;27;19943;-85
2023/08/02 03:54:20;;;;;;;;;;;;;;;26.19;60.23;100681.16;5106933;28;20006;-88
2023/08/02 03:56:45;;;;;;;;;;;;;;;26.17;60.23;100672.25;5102647;28;19924;-85
2023/08/02 03:59:10;;;;;;;;;;;;;;;26.18;60.42;100681.16;5112415;27;19911;-84
2023/08/02 04:01:36;;;;;;;;;;;;;;;26.18;60.55;100681.16;5093791;28;20307;-86
2023/08/02 04:04:01;;;;;;;;;;;;;;;26.15;60.53;100679.44;5119173;28;20848;-84
2023/08/02 04:06:27;;;;;;;;;;;;;;;26.15;60.65;100676.75;5118173;27;20558;-84
2023/08/02 04:08:52;;;;;;;;;;;;;;;26.15;60.37;100676.75;5099797;28;19932;-85
2023/08/02 04:11:18;;;;;;;;;;;;;;;26.14;60.54;100679.44;5112847;28;19964;-84
2023/08/02 04:13:43;;;;;;;;;;;;;;;26.15;60.09;100681.22;5126186;28;20364;-87
2023/08/02 04:16:08;;;;;;;;;;;;;;;26.15;60.08;100679.44;5117242;28;20385;-85
2023/08/02 04:18:34;;;;;;;;;;;;;;;26.17;59.96;100687.44;5103251;28;20282;-86
2023/08/02 04:20:59;;;;;;;;;;;;;;;26.16;60.10;100681.22;5129566;28;20390;-87
2023/08/02 04:23:25;;;;;;;;;;;;;;;26.15;60.17;100681.22;5098107;28;20507;-85
2023/08/02 04:25:51;;;;;;;;;;;;;;;26.13;60.15;100680.34;5100280;28;19911;-85
2023/08/02 04:28:16;;;;;;;;;;;;;;;26.12;60.14;100678.56;5133043;27;19911;-85
2023/08/02 04:30:43;;;;;;;;;;;;;;;26.10;60.37;100678.59;5133344;27;19961;-87
2023/08/02 04:33:08;;;;;;;;;;;;;;;26.13;60.28;100686.59;5113490;27;20288;-85
2023/08/02 04:35:33;;;;;;;;;;;;;;;26.12;60.44;100679.47;5131906;27;19971;-86
2023/08/02 04:37:59;;;;;;;;;;;;;;;26.11;60.36;100683.03;5091246;28;19923;-86
2023/08/02 04:40:24;;;;;;;;;;;;;;;26.09;60.61;100692.00;5103985;27;19911;-87
2023/08/02 04:42:50;;;;;;;;;;;;;;;26.09;60.38;100689.31;5126489;27;20364;-87
2023/08/02 04:45:16;;;;;;;;;;;;;;;26.12;60.11;100683.91;5107829;27;20263;-86
2023/08/02 04:47:41;;;;;;;;;;;;;;;26.11;60.42;100679.47;5118784;27;19915;-85
2023/08/02 04:50:06;;;;;;;;;;;;;;;26.14;60.20;100676.75;5147285;27;19994;-86
2023/08/02 04:52:33;;;;;;;;;;;;;;;26.13;60.27;100675.00;5134249;27;19978;-86
2023/08/02 04:54:58;;;;;;;;;;;;;;;26.14;60.51;100672.31;5100631;27;19912;-85
2023/08/02 04:57:24;;;;;;;;;;;;;;;26.13;60.29;100680.34;5131908;27;19922;-85
2023/08/02 04:59:52;;;;;;;;;;;;;;;26.14;60.58;100685.69;5104437;28;20300;-87
2023/08/02 05:02:19;;;;;;;;;;;;;;;26.12;60.26;100676.78;5101807;27;19927;-85
2023/08/02 05:04:44;;;;;;;;;;;;;;;26.10;60.34;100675.94;5098598;27;19968;-85
2023/08/02 05:07:10;;;;;;;;;;;;;;;26.10;60.38;100677.69;5129991;27;19915;-85
2023/08/02 05:09:35;;;;;;;;;;;;;;;26.08;60.49;100674.19;5124477;27;19942;-86
2023/08/02 05:12:01;;;;;;;;;;;;;;;26.08;60.37;100674.19;5108214;27;20388;-86
2023/08/02 05:14:27;;;;;;;;;;;;;;;26.06;60.79;100671.50;5107946;27;20315;-86
2023/08/02 05:16:52;;;;;;;;;;;;;;;25.95;61.47;100668.97;5102079;28;19942;-88
2023/08/02 05:19:19;;;;;;;;;;;;;;;25.84;61.85;100664.56;5104171;28;19911;-92
2023/08/02 05:21:44;;;;;;;;;;;;;;;26.04;60.62;100675.13;5101593;27;19908;-84
2023/08/02 05:24:09;;;;;;;;;;;;;;;26.16;59.86;100674.94;5109569;27;20380;-82
2023/08/02 05:26:35;;;;;;;;;;;;;;;26.26;58.87;100678.41;5126614;27;19964;-87
2023/08/02 05:29:00;;;;;;;;;;;;;;;26.17;58.08;100680.28;5122329;27;20303;-84
2023/08/02 05:31:26;;;;;;;;;;;;;;;26.39;57.03;100680.94;5097125;28;20380;-85
2023/08/02 05:33:51;;;;;;;;;;;;;;;26.40;56.42;100682.69;5132669;27;20387;-84
2023/08/02 05:36:17;;;;;;;;;;;;;;;26.52;55.34;100687.03;5121850;27;19916;-85
2023/08/02 05:38:42;;;;;;;;;;;;;;;26.45;55.27;100687.97;5124193;27;19916;-85
2023/08/02 05:41:08;;;;;;;;;;;;;;;26.33;55.03;100689.03;5119187;27;19939;-84
2023/08/02 05:43:33;;;;;;;;;;;;;;;26.55;54.33;100686.97;5115587;27;19911;-83
2023/08/02 05:45:58;;;;;;;;;;;;;;;26.58;53.85;100689.63;5112924;27;19915;-84
2023/08/02 05:48:24;;;;;;;;;;;;;;;26.52;53.88;100684.34;5130279;27;19915;-83
2023/08/02 05:50:50;;;;;;;;;;;;;;;26.48;54.23;100676.34;5104481;27;20360;-84
2023/08/02 05:53:15;;;;;;;;;;;;;;;26.56;53.37;100685.16;5101035;27;19973;-83
2023/08/02 05:55:40;;;;;;;;;;;;;;;26.67;53.14;100680.59;5094062;27;19911;-82
2023/08/02 05:58:07;;;;;;;;;;;;;;;26.73;52.97;100671.56;5128849;27;19919;-85
2023/08/02 06:00:32;;;;;;;;;;;;;;;26.77;52.49;100684.91;5113555;27;19911;-85
2023/08/02 06:02:58;;;;;;;;;;;;;;;26.83;52.47;100675.03;5124066;27;20403;-84
2023/08/02 06:05:23;;;;;;;;;;;;;;;26.81;52.34;100675.91;5098545;27;20400;-85
2023/08/02 06:07:49;;;;;;;;;;;;;;;26.77;52.32;100675.97;5102473;27;19966;-84
2023/08/02 06:10:14;;;;;;;;;;;;;;;26.84;52.24;100680.38;5112780;27;19919;-85
2023/08/02 06:12:39;;;;;;;;;;;;;;;26.83;52.05;100675.03;5124278;27;20363;-87
2023/08/02 06:15:05;;;;;;;;;;;;;;;26.90;51.70;100676.69;5099645;27;20426;-85
2023/08/02 06:17:31;;;;;;;;;;;;;;;26.87;52.04;100682.97;5119097;27;19916;-87
2023/08/02 06:19:56;;;;;;;;;;;;;;;26.84;51.95;100677.69;5119156;27;19923;-87
2023/08/02 06:22:21;;;;;;;;;;;;;;;26.84;51.81;100674.09;5124871;27;19915;-88
2023/08/02 06:24:47;;;;;;;;;;;;;;;26.93;51.19;100673.97;5097434;27;19930;-86
2023/08/02 06:27:13;;;;;;;;;;;;;;;26.99;51.29;100676.56;5121379;27;19932;-83
2023/08/02 06:29:38;;;;;;;;;;;;;;;26.96;51.09;100676.59;5125541;27;19919;-84
2023/08/02 06:32:10;;;;;;;;;;;;;;;26.94;51.15;100676.59;5121316;27;19923;-86
2023/08/02 06:34:35;;;;;;;;;;;;;;;26.89;51.18;100674.94;5102829;27;19911;-85
2023/08/02 06:37:01;;;;;;;;;;;;;;;26.86;51.57;100673.19;5084222;27;19938;-85
2023/08/02 06:39:26;;;;;;;;;;;;;;;26.92;51.33;100674.88;5111025;27;19916;-83
2023/08/02 06:41:52;;;;;;;;;;;;;;;27.05;50.87;100675.56;5099909;27;20316;-83
2023/08/02 06:44:18;;;;;;;;;;;;;;;26.98;50.97;100678.34;5121607;27;19975;-84
2023/08/02 06:46:46;;;;;;;;;;;;;;;27.04;50.74;100690.78;5119547;27;20008;-84
2023/08/02 06:49:12;;;;;;;;;;;;;;;27.14;50.35;100686.16;5119151;27;20270;-85
2023/08/02 06:51:37;;;;;;;;;;;;;;;27.01;51.38;100685.47;5113088;27;19919;-83
2023/08/02 06:57:08;;;;;;;;;;;;;;;27.13;50.62;100685.25;5127080;27;19922;-86
2023/08/02 06:59:56;;;;;;;;;;;;;;;27.03;50.88;100691.69;5115940;27;19907;-87
2023/08/02 07:02:40;;;;;;;;;;;;;;;27.06;50.58;100697.00;5113469;27;19944;-86
2023/08/02 07:05:25;;;;;;;;;;;;;;;27.12;50.27;100691.53;5097233;27;19994;-84
2023/08/02 07:08:06;;;;;;;;;;;;;;;27.14;50.05;100683.47;5096709;27;19922;-87
2023/08/02 07:10:50;;;;;;;;;;;;;;;27.04;50.55;100693.44;5111510;27;19912;-85
2023/08/02 07:13:24;;;;;;;;;;;;;;;27.10;50.05;100692.47;5121331;27;19972;-85
2023/08/02 07:15:54;;;;;;;;;;;;;;;27.15;50.18;100690.59;5118183;27;19907;-86
2023/08/02 07:18:34;;;;;;;;;;;;;;;27.22;49.72;100695.00;5112757;28;19915;-86
2023/08/02 07:21:10;;;;;;;;;;;;;;;27.20;50.00;100696.78;5121659;27;19912;-85
2023/08/02 07:23:40;;;;;;;;;;;;;;;27.10;50.04;100698.72;5105444;28;20442;-85
2023/08/02 07:26:09;;;;;;;;;;;;;;;27.17;49.80;100689.66;5094030;27;19939;-85
2023/08/02 07:28:56;;;;;;;;;;;;;;;27.13;49.60;100692.41;5109806;27;19941;-86
2023/08/02 07:31:29;;;;;;;;;;;;;;;27.18;49.56;100691.44;5102634;28;19956;-85
2023/08/02 07:33:56;;;;;;;;;;;;;;;27.19;49.39;100687.84;5114468;27;20373;-86
2023/08/02 07:36:24;;;;;;;;;;;;;;;27.30;49.12;100689.50;5087291;28;19918;-87
2023/08/02 07:38:59;;;;;;;;;;;;;;;27.10;49.87;100695.16;5107031;28;19923;-86
2023/08/02 07:41:28;;;;;;;;;;;;;;;27.18;49.26;100677.16;5122402;27;19912;-85
2023/08/02 07:43:56;;;;;;;;;;;;;;;27.25;49.32;100688.72;5114970;27;20439;-83
2023/08/02 07:46:22;;;;;;;;;;;;;;;27.24;49.22;100684.25;5106402;28;19916;-85
2023/08/02 07:49:24;;;;;;;;;;;;;;;27.30;48.86;100676.09;5076702;28;20023;-86
2023/08/02 07:51:54;;;;;;;;;;;;;;;27.22;49.05;100681.59;5001818;28;19909;-85
2023/08/02 07:54:19;;;;;;;;;;;;;;;27.24;48.89;100686.91;5080597;28;19950;-84
2023/08/02 07:57:06;;;;;;;;;;;;;;;27.29;48.70;100683.25;5101586;28;19954;-84
2023/08/02 07:59:31;;;;;;;;;;;;;;;27.30;48.62;100681.47;5072144;28;20061;-83
2023/08/02 08:01:56;;;;;;;;;;;;;;;27.32;48.89;100685.88;5057277;28;20007;-84
2023/08/02 08:04:22;;;;;;;;;;;;;;;27.40;48.64;100675.03;5100595;28;19908;-85
2023/08/02 08:06:48;;;;;;;;;;;;;;;27.40;48.31;100673.22;5076028;28;19915;-82
2023/08/02 08:09:23;;;;;;;;;;;;;;;27.30;48.38;100668.06;5090264;28;19908;-83
2023/08/02 08:11:49;;;;;;;;;;;;;;;27.32;48.64;100680.50;5083012;28;19911;-82
2023/08/02 08:14:14;;;;;;;;;;;;;;;27.27;48.78;100673.47;5099141;28;20306;-84
2023/08/02 08:16:39;;;;;;;;;;;;;;;27.45;48.40;100669.59;5067778;28;20319;-86
2023/08/02 08:19:05;;;;;;;;;;;;;;;27.35;48.52;100669.75;5099307;28;19922;-85
2023/08/02 08:21:31;;;;;;;;;;;;;;;27.23;48.39;100661.03;5091619;28;20440;-85
2023/08/02 08:23:56;;;;;;;;;;;;;;;27.37;48.55;100659.00;5104344;28;19912;-85
2023/08/02 08:26:22;;;;;;;;;;;;;;;27.40;48.26;100659.81;5093711;28;19912;-84
2023/08/02 08:28:48;;;;;;;;;;;;;;;27.46;48.44;100653.47;5094604;28;19946;-86
2023/08/02 08:31:13;;;;;;;;;;;;;;;27.50;48.21;100657.00;5072959;28;20443;-84
2023/08/02 08:33:38;;;;;;;;;;;;;;;27.44;48.34;100657.09;5094577;28;19911;-85
2023/08/02 08:36:04;;;;;;;;;;;;;;;27.40;48.29;100648.22;5076175;28;19948;-86
2023/08/02 08:38:30;;;;;;;;;;;;;;;27.49;48.28;100649.84;5072295;28;19970;-84
2023/08/02 08:40:56;;;;;;;;;;;;;;;27.53;48.22;100638.16;5090913;28;19916;-84
2023/08/02 08:43:25;;;;;;;;;;;;;;;27.52;48.03;100639.97;5095868;28;20018;-83
2023/08/02 08:45:50;;;;;;;;;;;;;;;27.50;48.05;100647.16;5116141;27;20478;-83
2023/08/02 08:48:16;;;;;;;;;;;;;;;27.44;48.19;100644.56;5115915;27;20142;-82
2023/08/02 08:50:41;;;;;;;;;;;;;;;27.37;48.34;100643.81;5117617;28;20399;-83
2023/08/02 08:53:07;;;;;;;;;;;;;;;27.51;47.96;100637.28;5111653;28;19915;-84
2023/08/02 08:55:33;;;;;;;;;;;;;;;27.60;47.93;100638.03;5103102;28;20400;-84
2023/08/02 08:57:58;;;;;;;;;;;;;;;27.73;47.66;100635.09;5111722;28;20433;-84
2023/08/02 09:00:24;;;;;;;;;;;;;;;27.58;47.66;100636.25;5126328;27;19912;-85
2023/08/02 09:02:49;;;;;;;;;;;;;;;27.58;47.90;100636.25;5122108;28;20001;-83
2023/08/02 09:05:15;;;;;;;;;;;;;;;27.51;47.81;100622.09;5111890;28;19943;-84
2023/08/02 09:07:40;;;;;;;;;;;;;;;27.68;47.35;100631.63;5115436;28;19912;-85
2023/08/02 09:10:06;;;;;;;;;;;;;;;27.62;47.44;100629.94;5125288;27;19951;-84
2023/08/02 09:12:41;;;;;;;;;;;;;;;27.68;47.68;100636.97;5111532;28;19908;-84
2023/08/02 09:15:07;;;;;;;;;;;;;;;27.66;47.31;100641.50;5139789;27;19921;-83
2023/08/02 09:17:45;;;;;;;;;;;;;;;27.57;47.47;100634.50;5118408;27;20017;-84
2023/08/02 09:20:10;;;;;;;;;;;;;;;27.58;47.33;100637.16;5127732;27;20377;-85
2023/08/02 09:22:36;;;;;;;;;;;;;;;27.54;47.54;100640.81;5121022;27;20357;-85
2023/08/02 09:25:07;;;;;;;;;;;;;;;27.56;47.04;100644.34;5122026;27;19937;-84
2023/08/02 09:27:33;;;;;;;;;;;;;;;27.67;47.01;100643.28;5110758;27;19968;-85
2023/08/02 09:29:58;;;;;;;;;;;;;;;27.69;47.00;100639.66;5126548;27;19911;-84
2023/08/02 09:32:24;;;;;;;;;;;;;;;27.68;46.88;100635.19;5129395;27;19912;-85
2023/08/02 09:35:02;;;;;;;;;;;;;;;27.58;46.99;100638.94;5101183;28;20350;-86
2023/08/02 09:37:29;;;;;;;;;;;;;;;27.65;46.98;100643.31;5097794;28;19996;-84
2023/08/02 09:39:55;;;;;;;;;;;;;;;27.69;46.79;100649.50;5099214;27;19922;-85
2023/08/02 09:42:26;;;;;;;;;;;;;;;27.69;47.01;100647.69;5098231;28;19916;-84
2023/08/02 09:44:58;;;;;;;;;;;;;;;27.69;47.04;100658.44;5114244;28;19920;-86
2023/08/02 09:47:26;;;;;;;;;;;;;;;27.69;46.93;100653.06;5092372;28;19918;-84
2023/08/02 09:50:10;;;;;;;;;;;;;;;27.71;46.83;100653.03;5108268;27;19911;-84
2023/08/02 09:52:38;;;;;;;;;;;;;;;27.72;46.83;100657.47;5123930;27;20148;-84
2023/08/02 09:55:12;;;;;;;;;;;;;;;27.75;46.70;100652.03;5128233;27;19907;-84
2023/08/02 09:57:38;;;;;;;;;;;;;;;27.76;46.77;100648.47;5120322;27;19919;-85
2023/08/02 10:00:38;;;;;;;;;;;;;;;27.78;46.60;100642.16;5097990;28;19964;-86
2023/08/02 10:06:24;;;;;;;;;;;;;;;27.75;46.88;100635.94;5037851;28;20032;-85
2023/08/02 10:08:54;;;;;;;;;;;;;;;27.75;46.64;100636.84;5029943;28;20416;-86
2023/08/02 10:11:20;;;;;;;;;;;;;;;27.77;46.72;100634.13;5041558;28;19916;-85
2023/08/02 10:13:57;;;;;;;;;;;;;;;27.75;46.80;100636.84;5009712;28;19916;-85
2023/08/02 10:16:28;;;;;;;;;;;;;;;27.84;46.49;100629.53;5043190;28;20509;-85
2023/08/02 10:18:56;;;;;;;;;;;;;;;27.85;46.26;100628.63;4979490;28;20051;-84
2023/08/02 10:21:39;;;;;;;;;;;;;;;27.83;46.58;100628.63;5093035;27;20395;-85
2023/08/02 10:24:06;;;;;;;;;;;;;;;27.86;46.36;100628.63;5131474;27;19919;-83
2023/08/02 10:26:35;;;;;;;;;;;;;;;27.84;46.42;100629.53;5113876;27;20437;-83
2023/08/02 10:29:01;;;;;;;;;;;;;;;27.87;46.35;100630.38;5114218;27;20291;-84
2023/08/02 10:31:26;;;;;;;;;;;;;;;27.85;46.38;100626.81;5093954;28;19985;-85
2023/08/02 10:33:52;;;;;;;;;;;;;;;27.92;46.03;100624.91;5125575;27;20292;-85
2023/08/02 10:36:17;;;;;;;;;;;;;;;27.90;46.20;100634.78;5095158;28;19918;-84
2023/08/02 10:38:42;;;;;;;;;;;;;;;27.89;46.06;100625.00;5112727;28;19922;-85
2023/08/02 10:41:15;;;;;;;;;;;;;;;27.86;46.42;100630.44;5112959;28;20385;-84
2023/08/02 10:43:54;;;;;;;;;;;;;;;27.83;46.44;100620.59;5112323;28;20452;-85
2023/08/02 10:46:25;;;;;;;;;;;;;;;27.86;46.03;100617.88;5112691;28;20006;-85
2023/08/02 10:48:50;;;;;;;;;;;;;;;27.79;46.18;100622.47;5078428;28;19912;-84
2023/08/02 10:51:34;;;;;;;;;;;;;;;27.97;45.79;100618.56;5124969;27;19911;-83
2023/08/02 10:54:28;;;;;;;;;;;;;;;27.98;45.69;100617.66;5112161;28;19908;-84
2023/08/02 10:56:58;;;;;;;;;;;;;;;27.97;45.95;100618.56;5094104;28;19907;-84
2023/08/02 10:59:24;;;;;;;;;;;;;;;27.95;45.69;100617.69;5099301;28;20270;-84
2023/08/02 11:01:56;;;;;;;;;;;;;;;28.00;45.67;100613.13;5112725;27;19914;-84
2023/08/02 11:04:21;;;;;;;;;;;;;;;27.97;46.05;100613.19;5119823;27;19976;-84
2023/08/02 11:06:47;;;;;;;;;;;;;;;27.92;46.23;100603.44;5111934;27;20689;-84
2023/08/02 11:09:39;;;;;;;;;;;;;;;27.99;46.02;100605.97;5094033;28;20006;-84
2023/08/02 11:12:16;;;;;;;;;;;;;;;28.09;45.85;100603.09;5115965;27;19911;-84
2023/08/02 11:14:43;;;;;;;;;;;;;;;28.07;45.74;100600.47;5116750;27;19911;-83
2023/08/02 11:17:28;;;;;;;;;;;;;;;28.04;46.10;100591.59;5111683;28;19935;-83
2023/08/02 11:19:54;;;;;;;;;;;;;;;28.01;45.80;100593.41;5106099;28;19937;-84
2023/08/02 11:22:19;;;;;;;;;;;;;;;28.05;45.81;100588.88;5105402;27;19911;-84
2023/08/02 11:24:51;;;;;;;;;;;;;;;28.01;45.70;100590.72;5093820;28;19907;-85
2023/08/02 11:27:26;;;;;;;;;;;;;;;28.10;45.82;100586.09;5095391;28;19907;-85
2023/08/02 11:33:00;;;;;;;;;;;;;;;28.13;45.57;100584.22;5132841;27;19914;-84
2023/08/02 11:35:31;;;;;;;;;;;;;;;28.08;45.70;100577.19;5116541;27;19911;-84
2023/08/02 11:37:57;;;;;;;;;;;;;;;28.08;45.68;100583.44;5125444;27;19915;-84
2023/08/02 11:40:23;;;;;;;;;;;;;;;28.15;45.63;100585.09;5112584;27;19944;-85
2023/08/02 11:42:50;;;;;;;;;;;;;;;28.11;45.78;100578.00;5089924;27;19931;-87
2023/08/02 11:45:32;;;;;;;;;;;;;;;28.13;45.74;100575.28;5089280;28;19958;-87
2023/08/02 11:47:59;;;;;;;;;;;;;;;28.14;45.60;100569.88;5059524;28;19916;-87
2023/08/02 11:50:27;;;;;;;;;;;;;;;28.23;45.50;100571.47;5095013;28;19911;-86
2023/08/02 11:53:09;;;;;;;;;;;;;;;28.09;45.67;100574.47;5073568;28;19908;-86
2023/08/02 11:55:35;;;;;;;;;;;;;;;28.14;45.56;100566.31;5074859;28;20002;-85
2023/08/02 11:58:02;;;;;;;;;;;;;;;28.12;45.59;100566.34;5092266;28;19939;-86
2023/08/02 12:00:27;;;;;;;;;;;;;;;28.23;45.35;100569.66;5091364;28;19958;-84
2023/08/02 12:02:53;;;;;;;;;;;;;;;28.21;45.39;100568.84;5073306;28;19947;-84
2023/08/02 12:05:19;;;;;;;;;;;;;;;28.15;45.56;100562.69;5073104;28;19915;-84
2023/08/02 12:10:48;;;;;;;;;;;;;;;28.15;45.34;100563.59;5094276;28;20307;-84
2023/08/02 12:13:15;;;;;;;;;;;;;;;28.19;45.37;100565.31;5089422;28;19919;-84
2023/08/02 12:16:02;;;;;;;;;;;;;;;28.19;45.34;100562.63;5092581;28;19939;-84
2023/08/02 12:18:28;;;;;;;;;;;;;;;28.17;45.36;100564.44;5074553;28;19920;-84
2023/08/02 12:21:18;;;;;;;;;;;;;;;28.22;45.25;100577.78;5082211;28;19908;-84
2023/08/02 12:23:50;;;;;;;;;;;;;;;28.20;45.22;100574.22;5094991;28;20384;-85
2023/08/02 12:26:35;;;;;;;;;;;;;;;28.24;45.00;100562.50;5091048;28;19912;-85
2023/08/02 12:32:31;;;;;;;;;;;;;;;28.27;44.90;100570.47;5091179;28;19915;-85
2023/08/02 12:35:18;;;;;;;;;;;;;;;28.31;44.87;100565.94;5055768;28;19908;-86
2023/08/02 12:37:47;;;;;;;;;;;;;;;28.27;45.04;100570.47;5087621;28;20061;-84
2023/08/02 12:40:24;;;;;;;;;;;;;;;28.22;45.05;100558.97;5075246;28;19976;-87
2023/08/02 12:42:51;;;;;;;;;;;;;;;28.32;44.49;100559.63;5112025;28;20419;-85
2023/08/02 12:45:18;;;;;;;;;;;;;;;28.27;44.80;100558.88;5079073;28;19930;-85
2023/08/02 12:47:44;;;;;;;;;;;;;;;28.29;44.39;100560.59;5091556;28;19916;-85
2023/08/02 12:50:09;;;;;;;;;;;;;;;28.32;44.65;100568.59;5095696;28;20363;-86
2023/08/02 12:52:36;;;;;;;;;;;;;;;28.34;44.40;100560.47;5096110;28;19908;-86
2023/08/02 12:55:03;;;;;;;;;;;;;;;28.26;44.64;100552.63;5098309;28;19912;-87